sensor_id;sensor_type;location;lat;lon;timestamp;P1;durP1;ratioP1;P2;durP2;ratioP2
47545;SDS011;50104;52.002;4.688;2022-12-18T00:00:16;58.47;;;22.53;;
47545;SDS011;50104;52.002;4.688;2022-12-18T00:05:17;61.13;;;19.63;;
47545;SDS011;50104;52.002;4.688;2022-12-18T00:10:18;55.93;;;20.17;;
47545;SDS011;50104;52.002;4.688;2022-12-18T00:15:18;60.60;;;19.97;;
47545;SDS011;50104;52.002;4.688;2022-12-18T00:20:19;64.17;;;19.47;;
47545;SDS011;50104;52.002;4.688;2022-12-18T00:25:44;52.40;;;17.53;;
47545;SDS011;50104;52.002;4.688;2022-12-18T00:30:45;56.30;;;17.43;;
47545;SDS011;50104;52.002;4.688;2022-12-18T00:35:45;67.33;;;19.10;;
47545;SDS011;50104;52.002;4.688;2022-12-18T00:40:46;54.03;;;18.07;;
47545;SDS011;50104;52.002;4.688;2022-12-18T00:45:47;54.17;;;18.27;;
47545;SDS011;50104;52.002;4.688;2022-12-18T00:50:48;57.50;;;19.93;;
47545;SDS011;50104;52.002;4.688;2022-12-18T00:55:50;61.73;;;17.40;;
47545;SDS011;50104;52.002;4.688;2022-12-18T01:00:51;60.17;;;18.40;;
47545;SDS011;50104;52.002;4.688;2022-12-18T01:05:51;51.33;;;17.50;;
47545;SDS011;50104;52.002;4.688;2022-12-18T01:10:52;50.20;;;17.40;;
47545;SDS011;50104;52.002;4.688;2022-12-18T01:15:53;45.73;;;16.43;;
47545;SDS011;50104;52.002;4.688;2022-12-18T01:20:54;53.83;;;16.90;;
47545;SDS011;50104;52.002;4.688;2022-12-18T01:25:54;42.83;;;17.10;;
47545;SDS011;50104;52.002;4.688;2022-12-18T01:30:55;61.23;;;18.60;;
47545;SDS011;50104;52.002;4.688;2022-12-18T01:35:56;38.83;;;15.87;;
47545;SDS011;50104;52.002;4.688;2022-12-18T01:40:57;45.80;;;17.20;;
47545;SDS011;50104;52.002;4.688;2022-12-18T01:45:59;42.17;;;16.83;;
47545;SDS011;50104;52.002;4.688;2022-12-18T01:51:00;36.73;;;14.37;;
47545;SDS011;50104;52.002;4.688;2022-12-18T01:56:01;43.30;;;16.57;;
47545;SDS011;50104;52.002;4.688;2022-12-18T02:01:03;40.83;;;15.50;;
47545;SDS011;50104;52.002;4.688;2022-12-18T02:17:32;40.87;;;14.67;;
47545;SDS011;50104;52.002;4.688;2022-12-18T02:27:53;46.60;;;14.40;;
47545;SDS011;50104;52.002;4.688;2022-12-18T02:32:57;49.97;;;14.77;;
47545;SDS011;50104;52.002;4.688;2022-12-18T02:38:00;52.47;;;15.07;;
47545;SDS011;50104;52.002;4.688;2022-12-18T02:43:07;53.47;;;17.13;;
47545;SDS011;50104;52.002;4.688;2022-12-18T02:48:13;46.63;;;16.63;;
47545;SDS011;50104;52.002;4.688;2022-12-18T03:04:07;42.13;;;16.43;;
47545;SDS011;50104;52.002;4.688;2022-12-18T03:09:29;46.13;;;14.33;;
47545;SDS011;50104;52.002;4.688;2022-12-18T03:14:35;45.80;;;15.27;;
47545;SDS011;50104;52.002;4.688;2022-12-18T03:19:38;43.53;;;15.70;;
47545;SDS011;50104;52.002;4.688;2022-12-18T03:24:45;42.83;;;15.03;;
47545;SDS011;50104;52.002;4.688;2022-12-18T03:29:52;35.70;;;13.77;;
47545;SDS011;50104;52.002;4.688;2022-12-18T03:35:10;38.80;;;15.27;;
47545;SDS011;50104;52.002;4.688;2022-12-18T03:40:13;35.87;;;13.83;;
47545;SDS011;50104;52.002;4.688;2022-12-18T03:45:22;34.70;;;15.27;;
47545;SDS011;50104;52.002;4.688;2022-12-18T03:56:07;45.70;;;13.37;;
47545;SDS011;50104;52.002;4.688;2022-12-18T04:01:10;39.77;;;14.10;;
47545;SDS011;50104;52.002;4.688;2022-12-18T04:06:14;40.57;;;15.53;;
47545;SDS011;50104;52.002;4.688;2022-12-18T04:11:17;44.03;;;16.53;;
47545;SDS011;50104;52.002;4.688;2022-12-18T04:16:17;51.30;;;19.13;;
47545;SDS011;50104;52.002;4.688;2022-12-18T04:21:18;47.40;;;17.67;;
47545;SDS011;50104;52.002;4.688;2022-12-18T04:26:20;44.77;;;16.93;;
47545;SDS011;50104;52.002;4.688;2022-12-18T04:31:21;40.67;;;16.63;;
47545;SDS011;50104;52.002;4.688;2022-12-18T04:36:22;38.70;;;16.87;;
47545;SDS011;50104;52.002;4.688;2022-12-18T04:41:23;43.13;;;17.80;;
47545;SDS011;50104;52.002;4.688;2022-12-18T04:46:23;36.53;;;15.50;;
47545;SDS011;50104;52.002;4.688;2022-12-18T04:51:24;34.80;;;16.00;;
47545;SDS011;50104;52.002;4.688;2022-12-18T04:56:25;36.03;;;15.40;;
47545;SDS011;50104;52.002;4.688;2022-12-18T05:01:26;40.40;;;14.80;;
47545;SDS011;50104;52.002;4.688;2022-12-18T05:06:26;41.50;;;17.13;;
47545;SDS011;50104;52.002;4.688;2022-12-18T05:11:27;36.93;;;14.77;;
47545;SDS011;50104;52.002;4.688;2022-12-18T05:16:28;38.87;;;17.00;;
47545;SDS011;50104;52.002;4.688;2022-12-18T05:21:29;36.33;;;14.73;;
47545;SDS011;50104;52.002;4.688;2022-12-18T05:26:29;32.50;;;15.17;;
47545;SDS011;50104;52.002;4.688;2022-12-18T05:31:30;32.97;;;14.33;;
47545;SDS011;50104;52.002;4.688;2022-12-18T05:36:31;32.13;;;14.87;;
47545;SDS011;50104;52.002;4.688;2022-12-18T05:41:32;34.33;;;14.03;;
47545;SDS011;50104;52.002;4.688;2022-12-18T05:46:33;35.63;;;15.23;;
47545;SDS011;50104;52.002;4.688;2022-12-18T05:51:33;27.03;;;12.20;;
47545;SDS011;50104;52.002;4.688;2022-12-18T05:56:34;34.00;;;15.80;;
47545;SDS011;50104;52.002;4.688;2022-12-18T06:01:35;33.77;;;13.73;;
47545;SDS011;50104;52.002;4.688;2022-12-18T06:06:36;26.33;;;13.40;;
47545;SDS011;50104;52.002;4.688;2022-12-18T06:11:37;19.97;;;9.77;;
47545;SDS011;50104;52.002;4.688;2022-12-18T06:16:38;28.43;;;12.67;;
47545;SDS011;50104;52.002;4.688;2022-12-18T06:21:39;37.70;;;13.80;;
47545;SDS011;50104;52.002;4.688;2022-12-18T06:26:40;28.30;;;12.83;;
47545;SDS011;50104;52.002;4.688;2022-12-18T06:31:41;30.30;;;13.23;;
47545;SDS011;50104;52.002;4.688;2022-12-18T06:36:42;25.93;;;12.33;;
47545;SDS011;50104;52.002;4.688;2022-12-18T06:41:43;25.07;;;12.80;;
47545;SDS011;50104;52.002;4.688;2022-12-18T06:46:44;28.83;;;15.17;;
47545;SDS011;50104;52.002;4.688;2022-12-18T06:51:45;23.90;;;11.57;;
47545;SDS011;50104;52.002;4.688;2022-12-18T06:56:46;31.37;;;14.20;;
47545;SDS011;50104;52.002;4.688;2022-12-18T07:01:47;29.47;;;13.30;;
47545;SDS011;50104;52.002;4.688;2022-12-18T07:06:48;26.77;;;12.77;;
47545;SDS011;50104;52.002;4.688;2022-12-18T07:11:49;21.00;;;9.43;;
47545;SDS011;50104;52.002;4.688;2022-12-18T07:16:49;27.27;;;12.97;;
47545;SDS011;50104;52.002;4.688;2022-12-18T07:21:50;26.23;;;11.17;;
47545;SDS011;50104;52.002;4.688;2022-12-18T07:26:51;28.43;;;13.43;;
47545;SDS011;50104;52.002;4.688;2022-12-18T07:31:52;25.50;;;12.87;;
47545;SDS011;50104;52.002;4.688;2022-12-18T07:36:53;21.03;;;9.83;;
47545;SDS011;50104;52.002;4.688;2022-12-18T07:41:53;26.70;;;12.80;;
47545;SDS011;50104;52.002;4.688;2022-12-18T07:47:13;26.07;;;14.50;;
47545;SDS011;50104;52.002;4.688;2022-12-18T07:52:13;27.80;;;13.17;;
47545;SDS011;50104;52.002;4.688;2022-12-18T07:57:14;27.50;;;14.13;;
47545;SDS011;50104;52.002;4.688;2022-12-18T08:02:16;37.73;;;15.97;;
47545;SDS011;50104;52.002;4.688;2022-12-18T08:07:17;34.70;;;13.73;;
47545;SDS011;50104;52.002;4.688;2022-12-18T08:12:17;23.93;;;10.80;;
47545;SDS011;50104;52.002;4.688;2022-12-18T08:17:19;37.27;;;14.73;;
47545;SDS011;50104;52.002;4.688;2022-12-18T08:22:20;33.53;;;14.47;;
47545;SDS011;50104;52.002;4.688;2022-12-18T08:27:21;28.30;;;13.07;;
47545;SDS011;50104;52.002;4.688;2022-12-18T08:32:22;27.50;;;12.33;;
47545;SDS011;50104;52.002;4.688;2022-12-18T08:37:24;32.20;;;12.33;;
47545;SDS011;50104;52.002;4.688;2022-12-18T08:42:25;30.53;;;15.53;;
47545;SDS011;50104;52.002;4.688;2022-12-18T08:47:44;33.77;;;12.17;;
47545;SDS011;50104;52.002;4.688;2022-12-18T08:52:45;33.73;;;13.83;;
47545;SDS011;50104;52.002;4.688;2022-12-18T08:57:48;25.20;;;11.40;;
47545;SDS011;50104;52.002;4.688;2022-12-18T09:02:49;23.13;;;12.43;;
47545;SDS011;50104;52.002;4.688;2022-12-18T09:07:50;26.60;;;13.43;;
47545;SDS011;50104;52.002;4.688;2022-12-18T09:12:51;27.00;;;13.97;;
47545;SDS011;50104;52.002;4.688;2022-12-18T09:17:52;27.97;;;12.40;;
47545;SDS011;50104;52.002;4.688;2022-12-18T09:22:53;20.23;;;11.27;;
47545;SDS011;50104;52.002;4.688;2022-12-18T09:27:54;20.47;;;12.07;;
47545;SDS011;50104;52.002;4.688;2022-12-18T09:32:55;27.07;;;13.20;;
47545;SDS011;50104;52.002;4.688;2022-12-18T09:37:56;21.77;;;11.17;;
47545;SDS011;50104;52.002;4.688;2022-12-18T09:42:58;24.13;;;10.33;;
47545;SDS011;50104;52.002;4.688;2022-12-18T09:48:05;20.97;;;11.67;;
47545;SDS011;50104;52.002;4.688;2022-12-18T09:53:18;24.90;;;13.03;;
47545;SDS011;50104;52.002;4.688;2022-12-18T10:03:48;28.03;;;13.13;;
47545;SDS011;50104;52.002;4.688;2022-12-18T10:14:17;21.07;;;11.70;;
47545;SDS011;50104;52.002;4.688;2022-12-18T10:30:33;24.57;;;12.00;;
47545;SDS011;50104;52.002;4.688;2022-12-18T10:35:34;17.57;;;11.50;;
47545;SDS011;50104;52.002;4.688;2022-12-18T10:56:29;22.53;;;12.57;;
47545;SDS011;50104;52.002;4.688;2022-12-18T11:01:53;26.07;;;12.70;;
47545;SDS011;50104;52.002;4.688;2022-12-18T11:12:27;17.73;;;10.63;;
47545;SDS011;50104;52.002;4.688;2022-12-18T11:17:32;23.57;;;12.23;;
47545;SDS011;50104;52.002;4.688;2022-12-18T11:22:35;27.27;;;13.13;;
47545;SDS011;50104;52.002;4.688;2022-12-18T11:27:38;25.47;;;13.40;;
47545;SDS011;50104;52.002;4.688;2022-12-18T11:32:43;22.93;;;12.77;;
47545;SDS011;50104;52.002;4.688;2022-12-18T11:38:23;25.77;;;12.67;;
47545;SDS011;50104;52.002;4.688;2022-12-18T11:43:36;22.37;;;12.10;;
47545;SDS011;50104;52.002;4.688;2022-12-18T11:54:21;27.30;;;12.97;;
47545;SDS011;50104;52.002;4.688;2022-12-18T11:59:33;23.70;;;12.17;;
47545;SDS011;50104;52.002;4.688;2022-12-18T12:32:52;24.33;;;12.03;;
47545;SDS011;50104;52.002;4.688;2022-12-18T12:38:24;23.93;;;12.77;;
47545;SDS011;50104;52.002;4.688;2022-12-18T12:43:46;25.13;;;13.60;;
47545;SDS011;50104;52.002;4.688;2022-12-18T12:48:50;26.43;;;13.90;;
47545;SDS011;50104;52.002;4.688;2022-12-18T12:53:56;23.00;;;13.60;;
47545;SDS011;50104;52.002;4.688;2022-12-18T12:59:05;22.10;;;11.63;;
47545;SDS011;50104;52.002;4.688;2022-12-18T13:15:20;27.43;;;13.63;;
47545;SDS011;50104;52.002;4.688;2022-12-18T13:20:28;24.40;;;12.50;;
47545;SDS011;50104;52.002;4.688;2022-12-18T13:25:38;27.53;;;14.43;;
47545;SDS011;50104;52.002;4.688;2022-12-18T13:30:49;27.63;;;13.37;;
47545;SDS011;50104;52.002;4.688;2022-12-18T13:36:09;28.00;;;13.73;;
47545;SDS011;50104;52.002;4.688;2022-12-18T13:41:26;25.93;;;13.47;;
47545;SDS011;50104;52.002;4.688;2022-12-18T13:46:29;27.35;;;12.52;;
47545;SDS011;50104;52.002;4.688;2022-12-18T13:51:49;25.57;;;13.33;;
47545;SDS011;50104;52.002;4.688;2022-12-18T13:56:52;24.20;;;13.83;;
47545;SDS011;50104;52.002;4.688;2022-12-18T14:07:10;28.10;;;14.47;;
47545;SDS011;50104;52.002;4.688;2022-12-18T14:12:21;29.97;;;15.57;;
47545;SDS011;50104;52.002;4.688;2022-12-18T14:17:46;20.13;;;11.67;;
47545;SDS011;50104;52.002;4.688;2022-12-18T14:22:48;27.20;;;13.80;;
47545;SDS011;50104;52.002;4.688;2022-12-18T14:27:59;26.83;;;14.93;;
47545;SDS011;50104;52.002;4.688;2022-12-18T14:38:28;27.20;;;14.60;;
47545;SDS011;50104;52.002;4.688;2022-12-18T14:43:36;25.27;;;14.10;;
47545;SDS011;50104;52.002;4.688;2022-12-18T14:48:40;27.77;;;14.50;;
47545;SDS011;50104;52.002;4.688;2022-12-18T14:53:43;22.57;;;12.17;;
47545;SDS011;50104;52.002;4.688;2022-12-18T14:58:48;24.93;;;13.50;;
47545;SDS011;50104;52.002;4.688;2022-12-18T15:03:53;25.03;;;13.57;;
47545;SDS011;50104;52.002;4.688;2022-12-18T15:08:56;28.07;;;14.37;;
47545;SDS011;50104;52.002;4.688;2022-12-18T15:13:58;23.63;;;12.77;;
47545;SDS011;50104;52.002;4.688;2022-12-18T15:19:00;22.77;;;13.10;;
47545;SDS011;50104;52.002;4.688;2022-12-18T15:24:01;23.40;;;14.23;;
47545;SDS011;50104;52.002;4.688;2022-12-18T15:29:02;25.87;;;12.07;;
47545;SDS011;50104;52.002;4.688;2022-12-18T15:34:10;25.50;;;13.77;;
47545;SDS011;50104;52.002;4.688;2022-12-18T15:39:25;25.90;;;14.03;;
47545;SDS011;50104;52.002;4.688;2022-12-18T15:44:26;29.10;;;13.47;;
47545;SDS011;50104;52.002;4.688;2022-12-18T15:49:27;18.53;;;12.03;;
47545;SDS011;50104;52.002;4.688;2022-12-18T15:54:28;29.50;;;13.77;;
47545;SDS011;50104;52.002;4.688;2022-12-18T15:59:47;23.70;;;12.83;;
47545;SDS011;50104;52.002;4.688;2022-12-18T16:04:48;25.40;;;13.57;;
47545;SDS011;50104;52.002;4.688;2022-12-18T16:09:51;24.50;;;14.13;;
47545;SDS011;50104;52.002;4.688;2022-12-18T16:14:52;24.10;;;12.70;;
47545;SDS011;50104;52.002;4.688;2022-12-18T16:19:52;17.63;;;11.07;;
47545;SDS011;50104;52.002;4.688;2022-12-18T16:24:54;23.80;;;12.37;;
47545;SDS011;50104;52.002;4.688;2022-12-18T16:29:57;23.03;;;12.67;;
47545;SDS011;50104;52.002;4.688;2022-12-18T16:35:01;28.47;;;14.27;;
47545;SDS011;50104;52.002;4.688;2022-12-18T16:40:02;23.60;;;12.70;;
47545;SDS011;50104;52.002;4.688;2022-12-18T16:45:05;28.47;;;15.40;;
47545;SDS011;50104;52.002;4.688;2022-12-18T16:50:08;23.87;;;13.10;;
47545;SDS011;50104;52.002;4.688;2022-12-18T16:55:09;27.37;;;12.30;;
47545;SDS011;50104;52.002;4.688;2022-12-18T17:00:11;27.67;;;14.50;;
47545;SDS011;50104;52.002;4.688;2022-12-18T17:05:12;27.50;;;14.40;;
47545;SDS011;50104;52.002;4.688;2022-12-18T17:10:13;26.77;;;13.73;;
47545;SDS011;50104;52.002;4.688;2022-12-18T17:15:14;24.97;;;13.77;;
47545;SDS011;50104;52.002;4.688;2022-12-18T17:20:15;28.33;;;14.67;;
47545;SDS011;50104;52.002;4.688;2022-12-18T17:25:16;25.50;;;13.70;;
47545;SDS011;50104;52.002;4.688;2022-12-18T17:30:16;22.83;;;13.80;;
47545;SDS011;50104;52.002;4.688;2022-12-18T17:35:17;21.93;;;13.60;;
47545;SDS011;50104;52.002;4.688;2022-12-18T17:40:18;27.27;;;13.50;;
47545;SDS011;50104;52.002;4.688;2022-12-18T17:45:19;24.67;;;14.47;;
47545;SDS011;50104;52.002;4.688;2022-12-18T17:50:20;24.00;;;13.37;;
47545;SDS011;50104;52.002;4.688;2022-12-18T17:55:21;25.67;;;12.07;;
47545;SDS011;50104;52.002;4.688;2022-12-18T18:00:22;27.03;;;15.17;;
47545;SDS011;50104;52.002;4.688;2022-12-18T18:05:23;21.17;;;11.77;;
47545;SDS011;50104;52.002;4.688;2022-12-18T18:10:24;27.40;;;14.77;;
47545;SDS011;50104;52.002;4.688;2022-12-18T18:15:24;27.63;;;13.27;;
47545;SDS011;50104;52.002;4.688;2022-12-18T18:20:25;25.77;;;13.87;;
47545;SDS011;50104;52.002;4.688;2022-12-18T18:25:29;26.27;;;14.50;;
47545;SDS011;50104;52.002;4.688;2022-12-18T18:30:30;26.13;;;13.57;;
47545;SDS011;50104;52.002;4.688;2022-12-18T18:35:31;31.03;;;15.33;;
47545;SDS011;50104;52.002;4.688;2022-12-18T18:40:32;29.13;;;16.13;;
47545;SDS011;50104;52.002;4.688;2022-12-18T18:45:33;30.20;;;14.80;;
47545;SDS011;50104;52.002;4.688;2022-12-18T18:50:33;27.17;;;15.80;;
47545;SDS011;50104;52.002;4.688;2022-12-18T18:55:34;27.27;;;15.00;;
47545;SDS011;50104;52.002;4.688;2022-12-18T19:00:36;28.63;;;16.70;;
47545;SDS011;50104;52.002;4.688;2022-12-18T19:05:37;27.80;;;14.07;;
47545;SDS011;50104;52.002;4.688;2022-12-18T19:10:41;32.53;;;16.83;;
47545;SDS011;50104;52.002;4.688;2022-12-18T19:15:41;28.77;;;15.97;;
47545;SDS011;50104;52.002;4.688;2022-12-18T19:20:52;31.00;;;16.23;;
47545;SDS011;50104;52.002;4.688;2022-12-18T19:25:59;33.63;;;16.47;;
47545;SDS011;50104;52.002;4.688;2022-12-18T19:31:06;35.10;;;16.67;;
47545;SDS011;50104;52.002;4.688;2022-12-18T19:36:11;34.53;;;17.73;;
47545;SDS011;50104;52.002;4.688;2022-12-18T19:41:14;33.87;;;18.50;;
47545;SDS011;50104;52.002;4.688;2022-12-18T19:46:18;26.93;;;16.13;;
47545;SDS011;50104;52.002;4.688;2022-12-18T19:51:25;33.50;;;16.57;;
47545;SDS011;50104;52.002;4.688;2022-12-18T19:56:29;29.97;;;15.13;;
47545;SDS011;50104;52.002;4.688;2022-12-18T20:01:32;34.17;;;16.40;;
47545;SDS011;50104;52.002;4.688;2022-12-18T20:11:52;33.27;;;17.70;;
47545;SDS011;50104;52.002;4.688;2022-12-18T20:16:53;32.23;;;17.33;;
47545;SDS011;50104;52.002;4.688;2022-12-18T20:21:54;34.73;;;17.23;;
47545;SDS011;50104;52.002;4.688;2022-12-18T20:26:55;32.40;;;16.07;;
47545;SDS011;50104;52.002;4.688;2022-12-18T20:31:55;31.37;;;16.87;;
47545;SDS011;50104;52.002;4.688;2022-12-18T20:36:56;32.17;;;16.70;;
47545;SDS011;50104;52.002;4.688;2022-12-18T20:41:57;38.43;;;17.10;;
47545;SDS011;50104;52.002;4.688;2022-12-18T20:46:58;33.17;;;15.53;;
47545;SDS011;50104;52.002;4.688;2022-12-18T20:52:01;29.43;;;14.63;;
47545;SDS011;50104;52.002;4.688;2022-12-18T20:57:02;34.90;;;15.50;;
47545;SDS011;50104;52.002;4.688;2022-12-18T21:02:03;31.93;;;15.43;;
47545;SDS011;50104;52.002;4.688;2022-12-18T21:07:04;33.77;;;15.77;;
47545;SDS011;50104;52.002;4.688;2022-12-18T21:12:07;31.73;;;16.87;;
47545;SDS011;50104;52.002;4.688;2022-12-18T21:17:30;26.57;;;14.20;;
47545;SDS011;50104;52.002;4.688;2022-12-18T21:22:31;33.23;;;16.97;;
47545;SDS011;50104;52.002;4.688;2022-12-18T21:27:31;34.97;;;17.70;;
47545;SDS011;50104;52.002;4.688;2022-12-18T21:32:32;32.70;;;15.67;;
47545;SDS011;50104;52.002;4.688;2022-12-18T21:37:33;27.70;;;14.27;;
47545;SDS011;50104;52.002;4.688;2022-12-18T21:42:34;38.90;;;18.53;;
47545;SDS011;50104;52.002;4.688;2022-12-18T21:47:54;38.67;;;16.43;;
47545;SDS011;50104;52.002;4.688;2022-12-18T21:52:54;27.37;;;12.77;;
47545;SDS011;50104;52.002;4.688;2022-12-18T21:57:55;35.10;;;17.23;;
47545;SDS011;50104;52.002;4.688;2022-12-18T22:02:56;33.67;;;16.97;;
47545;SDS011;50104;52.002;4.688;2022-12-18T22:07:57;31.00;;;14.87;;
47545;SDS011;50104;52.002;4.688;2022-12-18T22:12:57;33.77;;;15.90;;
47545;SDS011;50104;52.002;4.688;2022-12-18T22:17:58;30.90;;;15.33;;
47545;SDS011;50104;52.002;4.688;2022-12-18T22:22:59;30.63;;;14.93;;
47545;SDS011;50104;52.002;4.688;2022-12-18T22:28:00;35.30;;;16.63;;
47545;SDS011;50104;52.002;4.688;2022-12-18T22:33:19;26.40;;;12.83;;
47545;SDS011;50104;52.002;4.688;2022-12-18T22:38:20;30.77;;;15.50;;
47545;SDS011;50104;52.002;4.688;2022-12-18T22:43:21;45.47;;;17.83;;
47545;SDS011;50104;52.002;4.688;2022-12-18T22:48:22;33.10;;;15.47;;
47545;SDS011;50104;52.002;4.688;2022-12-18T22:53:22;36.70;;;18.17;;
47545;SDS011;50104;52.002;4.688;2022-12-18T22:58:23;33.83;;;15.17;;
47545;SDS011;50104;52.002;4.688;2022-12-18T23:03:24;33.57;;;16.70;;
47545;SDS011;50104;52.002;4.688;2022-12-18T23:08:25;34.33;;;16.30;;
47545;SDS011;50104;52.002;4.688;2022-12-18T23:13:26;39.23;;;16.57;;
47545;SDS011;50104;52.002;4.688;2022-12-18T23:18:27;33.30;;;16.37;;
47545;SDS011;50104;52.002;4.688;2022-12-18T23:23:28;32.23;;;16.33;;
47545;SDS011;50104;52.002;4.688;2022-12-18T23:28:30;34.43;;;15.07;;
47545;SDS011;50104;52.002;4.688;2022-12-18T23:33:32;37.87;;;16.50;;
47545;SDS011;50104;52.002;4.688;2022-12-18T23:38:34;32.43;;;13.87;;
47545;SDS011;50104;52.002;4.688;2022-12-18T23:43:34;28.77;;;14.40;;
47545;SDS011;50104;52.002;4.688;2022-12-18T23:48:37;34.13;;;17.33;;
47545;SDS011;50104;52.002;4.688;2022-12-18T23:53:39;34.80;;;16.13;;
47545;SDS011;50104;52.002;4.688;2022-12-18T23:58:41;32.83;;;14.63;;
